Edgartown, Massachusetts
Current Conditions -  °F | °C
As of 1:53 PM on Thursday 18 Dec 2014 (Local Time) from KMVY Reporting Station
Clear Clear  
Wind Chill: 35°   Ceiling: Unl
Heat Index: 43°   Visibility: 10mi
Dew Point: 26°   Wind: 16mph
Humidity: 51%   Direction: 290°WNW
Pressure: 29.78"   Gusts: 25mph
Location:  41.39°N, 70.52°W
Report Text: KMVY 181853Z 29014G22KT 10SM CLR 06/M03 A2978 RMK AO2 SLP085 T00611033
Loading
Personal Weather Stations






























Interactive Weather Map New forecast layout! Learn more

10-Day Weather Forecast

Advertisements
Track Severe Weather on mobile